sensor_id;sensor_type;location;lat;lon;timestamp;temperature;humidity
16128;DHT22;8168;49.036;7.690;2022-09-14T00:00:26;18.70;99.90
16128;DHT22;8168;49.036;7.690;2022-09-14T00:02:57;18.80;99.90
16128;DHT22;8168;49.036;7.690;2022-09-14T00:05:28;18.80;99.90
16128;DHT22;8168;49.036;7.690;2022-09-14T00:07:58;18.80;99.90
16128;DHT22;8168;49.036;7.690;2022-09-14T00:10:30;18.80;99.90
16128;DHT22;8168;49.036;7.690;2022-09-14T00:13:01;18.80;99.90
16128;DHT22;8168;49.036;7.690;2022-09-14T00:15:37;18.80;99.90
16128;DHT22;8168;49.036;7.690;2022-09-14T00:18:09;18.70;99.90
16128;DHT22;8168;49.036;7.690;2022-09-14T00:20:40;18.70;99.90
16128;DHT22;8168;49.036;7.690;2022-09-14T00:23:10;18.70;99.90
16128;DHT22;8168;49.036;7.690;2022-09-14T00:25:41;18.60;99.90
16128;DHT22;8168;49.036;7.690;2022-09-14T00:28:12;18.60;99.90
16128;DHT22;8168;49.036;7.690;2022-09-14T00:30:42;18.50;99.90
16128;DHT22;8168;49.036;7.690;2022-09-14T00:33:13;18.50;99.90
16128;DHT22;8168;49.036;7.690;2022-09-14T00:35:43;18.50;99.90
16128;DHT22;8168;49.036;7.690;2022-09-14T00:38:14;18.60;99.90
16128;DHT22;8168;49.036;7.690;2022-09-14T00:40:45;18.70;99.90
16128;DHT22;8168;49.036;7.690;2022-09-14T00:43:25;18.70;99.90
16128;DHT22;8168;49.036;7.690;2022-09-14T00:45:55;18.70;99.90
16128;DHT22;8168;49.036;7.690;2022-09-14T00:48:29;18.60;99.90
16128;DHT22;8168;49.036;7.690;2022-09-14T00:51:00;18.50;99.90
16128;DHT22;8168;49.036;7.690;2022-09-14T00:53:30;18.50;99.90
16128;DHT22;8168;49.036;7.690;2022-09-14T00:56:01;18.30;99.90
16128;DHT22;8168;49.036;7.690;2022-09-14T00:58:32;18.10;99.90
16128;DHT22;8168;49.036;7.690;2022-09-14T01:01:02;18.10;99.90
16128;DHT22;8168;49.036;7.690;2022-09-14T01:03:33;18.10;99.90
16128;DHT22;8168;49.036;7.690;2022-09-14T01:06:32;18.10;99.90
16128;DHT22;8168;49.036;7.690;2022-09-14T01:09:11;18.10;99.90
16128;DHT22;8168;49.036;7.690;2022-09-14T01:14:31;18.20;99.90
16128;DHT22;8168;49.036;7.690;2022-09-14T01:17:22;18.20;99.90
16128;DHT22;8168;49.036;7.690;2022-09-14T01:23:07;18.20;99.90
16128;DHT22;8168;49.036;7.690;2022-09-14T01:29:30;18.20;99.90
16128;DHT22;8168;49.036;7.690;2022-09-14T01:32:24;18.20;99.90
16128;DHT22;8168;49.036;7.690;2022-09-14T01:38:30;18.20;99.90
16128;DHT22;8168;49.036;7.690;2022-09-14T01:40:53;18.20;99.90
16128;DHT22;8168;49.036;7.690;2022-09-14T01:46:19;18.20;99.90
16128;DHT22;8168;49.036;7.690;2022-09-14T01:51:47;18.20;99.90
16128;DHT22;8168;49.036;7.690;2022-09-14T01:54:19;18.20;99.90
16128;DHT22;8168;49.036;7.690;2022-09-14T01:57:06;18.10;99.90
16128;DHT22;8168;49.036;7.690;2022-09-14T01:59:42;18.00;99.90
16128;DHT22;8168;49.036;7.690;2022-09-14T02:02:18;17.90;99.90
16128;DHT22;8168;49.036;7.690;2022-09-14T02:07:37;17.90;99.90
16128;DHT22;8168;49.036;7.690;2022-09-14T02:10:11;17.90;99.90
16128;DHT22;8168;49.036;7.690;2022-09-14T02:12:42;18.00;99.90
16128;DHT22;8168;49.036;7.690;2022-09-14T02:15:14;19.40;99.90
16128;DHT22;8168;49.036;7.690;2022-09-14T02:17:45;18.10;99.90
16128;DHT22;8168;49.036;7.690;2022-09-14T02:20:26;18.10;99.90
16128;DHT22;8168;49.036;7.690;2022-09-14T02:22:58;18.10;99.90
16128;DHT22;8168;49.036;7.690;2022-09-14T02:25:30;18.20;99.90
16128;DHT22;8168;49.036;7.690;2022-09-14T02:28:02;18.20;99.90
16128;DHT22;8168;49.036;7.690;2022-09-14T02:30:49;18.30;99.90
16128;DHT22;8168;49.036;7.690;2022-09-14T02:33:51;18.30;99.90
16128;DHT22;8168;49.036;7.690;2022-09-14T02:36:45;18.30;99.90
16128;DHT22;8168;49.036;7.690;2022-09-14T02:57:25;18.20;99.90
16128;DHT22;8168;49.036;7.690;2022-09-14T02:59:56;18.00;99.90
16128;DHT22;8168;49.036;7.690;2022-09-14T03:02:26;18.00;99.90
16128;DHT22;8168;49.036;7.690;2022-09-14T03:04:57;17.90;99.90
16128;DHT22;8168;49.036;7.690;2022-09-14T03:07:28;18.00;99.90
16128;DHT22;8168;49.036;7.690;2022-09-14T03:09:58;18.00;99.90
16128;DHT22;8168;49.036;7.690;2022-09-14T03:12:29;18.00;99.90
16128;DHT22;8168;49.036;7.690;2022-09-14T03:14:59;18.10;99.90
16128;DHT22;8168;49.036;7.690;2022-09-14T03:17:30;18.10;99.90
16128;DHT22;8168;49.036;7.690;2022-09-14T03:20:01;18.20;99.90
16128;DHT22;8168;49.036;7.690;2022-09-14T03:22:33;18.10;99.90
16128;DHT22;8168;49.036;7.690;2022-09-14T03:25:04;18.10;99.90
16128;DHT22;8168;49.036;7.690;2022-09-14T03:27:34;18.00;99.90
16128;DHT22;8168;49.036;7.690;2022-09-14T03:30:05;18.00;99.90
16128;DHT22;8168;49.036;7.690;2022-09-14T03:32:36;18.00;99.90
16128;DHT22;8168;49.036;7.690;2022-09-14T03:35:07;18.00;99.90
16128;DHT22;8168;49.036;7.690;2022-09-14T03:37:39;18.00;99.90
16128;DHT22;8168;49.036;7.690;2022-09-14T03:40:12;18.00;99.90
16128;DHT22;8168;49.036;7.690;2022-09-14T03:42:45;17.90;99.90
16128;DHT22;8168;49.036;7.690;2022-09-14T03:45:17;17.90;99.90
16128;DHT22;8168;49.036;7.690;2022-09-14T03:47:48;17.90;99.90
16128;DHT22;8168;49.036;7.690;2022-09-14T03:50:18;18.00;99.90
16128;DHT22;8168;49.036;7.690;2022-09-14T03:52:49;18.00;99.90
16128;DHT22;8168;49.036;7.690;2022-09-14T03:55:20;18.10;99.90
16128;DHT22;8168;49.036;7.690;2022-09-14T03:57:54;18.10;99.90
16128;DHT22;8168;49.036;7.690;2022-09-14T04:00:25;18.20;99.90
16128;DHT22;8168;49.036;7.690;2022-09-14T04:02:55;18.20;99.90
16128;DHT22;8168;49.036;7.690;2022-09-14T04:05:28;18.20;99.90
16128;DHT22;8168;49.036;7.690;2022-09-14T04:07:59;18.20;99.90
16128;DHT22;8168;49.036;7.690;2022-09-14T04:10:30;18.20;99.90
16128;DHT22;8168;49.036;7.690;2022-09-14T04:13:00;18.30;99.90
16128;DHT22;8168;49.036;7.690;2022-09-14T04:15:31;18.30;99.90
16128;DHT22;8168;49.036;7.690;2022-09-14T04:18:02;18.30;99.90
16128;DHT22;8168;49.036;7.690;2022-09-14T04:20:32;18.40;99.90
16128;DHT22;8168;49.036;7.690;2022-09-14T04:23:03;18.40;99.90
16128;DHT22;8168;49.036;7.690;2022-09-14T04:25:33;18.30;99.90
16128;DHT22;8168;49.036;7.690;2022-09-14T04:28:04;18.40;99.90
16128;DHT22;8168;49.036;7.690;2022-09-14T04:30:36;18.40;99.90
16128;DHT22;8168;49.036;7.690;2022-09-14T04:33:06;18.40;99.90
16128;DHT22;8168;49.036;7.690;2022-09-14T04:35:37;18.40;99.90
16128;DHT22;8168;49.036;7.690;2022-09-14T04:38:08;18.40;99.90
16128;DHT22;8168;49.036;7.690;2022-09-14T04:40:41;18.30;99.90
16128;DHT22;8168;49.036;7.690;2022-09-14T04:43:12;18.30;99.90
16128;DHT22;8168;49.036;7.690;2022-09-14T04:45:42;18.30;99.90
16128;DHT22;8168;49.036;7.690;2022-09-14T04:48:13;18.30;99.90
16128;DHT22;8168;49.036;7.690;2022-09-14T04:50:44;18.30;99.90
16128;DHT22;8168;49.036;7.690;2022-09-14T04:53:15;18.30;99.90
16128;DHT22;8168;49.036;7.690;2022-09-14T04:55:45;18.30;99.90
16128;DHT22;8168;49.036;7.690;2022-09-14T04:58:16;18.30;99.90
16128;DHT22;8168;49.036;7.690;2022-09-14T05:00:47;18.40;99.90
16128;DHT22;8168;49.036;7.690;2022-09-14T05:03:17;18.30;99.90
16128;DHT22;8168;49.036;7.690;2022-09-14T05:05:48;18.40;99.90
16128;DHT22;8168;49.036;7.690;2022-09-14T05:08:18;18.30;99.90
16128;DHT22;8168;49.036;7.690;2022-09-14T05:10:49;18.30;99.90
16128;DHT22;8168;49.036;7.690;2022-09-14T05:13:24;18.30;99.90
16128;DHT22;8168;49.036;7.690;2022-09-14T05:16:22;18.40;99.90
16128;DHT22;8168;49.036;7.690;2022-09-14T05:18:59;18.30;99.90
16128;DHT22;8168;49.036;7.690;2022-09-14T05:21:33;18.40;99.90
16128;DHT22;8168;49.036;7.690;2022-09-14T05:24:14;18.30;99.90
16128;DHT22;8168;49.036;7.690;2022-09-14T05:26:46;18.40;99.90
16128;DHT22;8168;49.036;7.690;2022-09-14T05:29:17;18.40;99.90
16128;DHT22;8168;49.036;7.690;2022-09-14T05:31:48;18.40;99.90
16128;DHT22;8168;49.036;7.690;2022-09-14T05:34:18;18.40;99.90
16128;DHT22;8168;49.036;7.690;2022-09-14T05:36:49;18.50;99.90
16128;DHT22;8168;49.036;7.690;2022-09-14T05:39:19;18.50;99.90
16128;DHT22;8168;49.036;7.690;2022-09-14T05:41:51;18.40;99.90
16128;DHT22;8168;49.036;7.690;2022-09-14T05:44:21;18.40;99.90
16128;DHT22;8168;49.036;7.690;2022-09-14T05:46:52;18.40;99.90
16128;DHT22;8168;49.036;7.690;2022-09-14T05:49:22;18.40;99.90
16128;DHT22;8168;49.036;7.690;2022-09-14T05:51:54;18.50;99.90
16128;DHT22;8168;49.036;7.690;2022-09-14T05:54:25;18.50;99.90
16128;DHT22;8168;49.036;7.690;2022-09-14T05:56:55;18.50;99.90
16128;DHT22;8168;49.036;7.690;2022-09-14T05:59:26;18.50;99.90
16128;DHT22;8168;49.036;7.690;2022-09-14T06:02:01;18.50;99.90
16128;DHT22;8168;49.036;7.690;2022-09-14T06:04:31;18.50;99.90
16128;DHT22;8168;49.036;7.690;2022-09-14T06:07:02;18.50;99.90
16128;DHT22;8168;49.036;7.690;2022-09-14T06:09:33;18.50;99.90
16128;DHT22;8168;49.036;7.690;2022-09-14T06:12:03;18.60;99.90
16128;DHT22;8168;49.036;7.690;2022-09-14T06:14:34;18.50;99.90
16128;DHT22;8168;49.036;7.690;2022-09-14T06:17:05;18.60;99.90
16128;DHT22;8168;49.036;7.690;2022-09-14T06:19:35;18.60;99.90
16128;DHT22;8168;49.036;7.690;2022-09-14T06:22:06;18.60;99.90
16128;DHT22;8168;49.036;7.690;2022-09-14T06:24:36;18.70;99.90
16128;DHT22;8168;49.036;7.690;2022-09-14T06:27:07;18.70;99.90
16128;DHT22;8168;49.036;7.690;2022-09-14T06:29:39;18.60;99.90
16128;DHT22;8168;49.036;7.690;2022-09-14T06:32:10;18.60;99.90
16128;DHT22;8168;49.036;7.690;2022-09-14T06:34:40;18.60;99.90
16128;DHT22;8168;49.036;7.690;2022-09-14T06:37:11;18.60;99.90
16128;DHT22;8168;49.036;7.690;2022-09-14T06:39:41;18.70;99.90
16128;DHT22;8168;49.036;7.690;2022-09-14T06:42:12;18.70;99.90
16128;DHT22;8168;49.036;7.690;2022-09-14T06:44:43;18.70;99.90
16128;DHT22;8168;49.036;7.690;2022-09-14T06:47:13;18.70;99.90
16128;DHT22;8168;49.036;7.690;2022-09-14T06:49:44;18.70;99.90
16128;DHT22;8168;49.036;7.690;2022-09-14T06:52:15;18.70;99.90
16128;DHT22;8168;49.036;7.690;2022-09-14T06:54:46;18.80;99.90
16128;DHT22;8168;49.036;7.690;2022-09-14T06:57:17;18.80;99.90
16128;DHT22;8168;49.036;7.690;2022-09-14T06:59:48;18.80;99.90
16128;DHT22;8168;49.036;7.690;2022-09-14T07:02:18;18.80;99.90
16128;DHT22;8168;49.036;7.690;2022-09-14T07:04:49;18.30;99.90
16128;DHT22;8168;49.036;7.690;2022-09-14T07:07:20;18.80;99.90
16128;DHT22;8168;49.036;7.690;2022-09-14T07:09:50;18.80;99.90
16128;DHT22;8168;49.036;7.690;2022-09-14T07:12:21;18.80;99.90
16128;DHT22;8168;49.036;7.690;2022-09-14T07:14:51;18.80;99.90
16128;DHT22;8168;49.036;7.690;2022-09-14T07:17:22;18.80;99.90
16128;DHT22;8168;49.036;7.690;2022-09-14T07:19:53;18.80;99.90
16128;DHT22;8168;49.036;7.690;2022-09-14T07:22:23;18.90;99.90
16128;DHT22;8168;49.036;7.690;2022-09-14T07:24:54;18.90;99.90
16128;DHT22;8168;49.036;7.690;2022-09-14T07:27:25;19.00;99.90
16128;DHT22;8168;49.036;7.690;2022-09-14T07:29:55;19.00;99.90
16128;DHT22;8168;49.036;7.690;2022-09-14T07:32:26;19.10;99.90
16128;DHT22;8168;49.036;7.690;2022-09-14T07:34:57;19.20;99.90
16128;DHT22;8168;49.036;7.690;2022-09-14T07:37:28;19.20;99.90
16128;DHT22;8168;49.036;7.690;2022-09-14T07:39:59;19.30;99.90
16128;DHT22;8168;49.036;7.690;2022-09-14T07:42:30;19.40;99.90
16128;DHT22;8168;49.036;7.690;2022-09-14T07:45:01;19.50;99.90
16128;DHT22;8168;49.036;7.690;2022-09-14T07:47:31;19.60;99.90
16128;DHT22;8168;49.036;7.690;2022-09-14T07:50:02;19.60;99.90
16128;DHT22;8168;49.036;7.690;2022-09-14T07:52:33;19.70;99.90
16128;DHT22;8168;49.036;7.690;2022-09-14T07:55:05;19.80;99.90
16128;DHT22;8168;49.036;7.690;2022-09-14T07:57:36;19.90;99.90
16128;DHT22;8168;49.036;7.690;2022-09-14T08:00:07;20.00;99.90
16128;DHT22;8168;49.036;7.690;2022-09-14T08:02:38;20.10;99.90
16128;DHT22;8168;49.036;7.690;2022-09-14T08:05:08;20.10;99.90
16128;DHT22;8168;49.036;7.690;2022-09-14T08:07:40;20.30;99.90
16128;DHT22;8168;49.036;7.690;2022-09-14T08:10:11;20.40;99.90
16128;DHT22;8168;49.036;7.690;2022-09-14T08:12:41;20.40;99.90
16128;DHT22;8168;49.036;7.690;2022-09-14T08:15:12;20.60;99.90
16128;DHT22;8168;49.036;7.690;2022-09-14T08:17:43;20.50;99.90
16128;DHT22;8168;49.036;7.690;2022-09-14T08:20:13;20.60;99.90
16128;DHT22;8168;49.036;7.690;2022-09-14T08:22:45;20.60;99.90
16128;DHT22;8168;49.036;7.690;2022-09-14T08:25:16;20.70;99.90
16128;DHT22;8168;49.036;7.690;2022-09-14T08:27:47;20.70;99.90
16128;DHT22;8168;49.036;7.690;2022-09-14T08:30:17;20.80;99.90
16128;DHT22;8168;49.036;7.690;2022-09-14T08:32:48;20.90;99.90
16128;DHT22;8168;49.036;7.690;2022-09-14T08:35:18;21.10;99.90
16128;DHT22;8168;49.036;7.690;2022-09-14T08:37:49;21.10;99.90
16128;DHT22;8168;49.036;7.690;2022-09-14T08:40:20;21.20;99.90
16128;DHT22;8168;49.036;7.690;2022-09-14T08:42:53;21.30;99.90
16128;DHT22;8168;49.036;7.690;2022-09-14T08:45:25;21.30;99.90
16128;DHT22;8168;49.036;7.690;2022-09-14T08:47:57;21.40;99.90
16128;DHT22;8168;49.036;7.690;2022-09-14T08:50:29;21.40;99.90
16128;DHT22;8168;49.036;7.690;2022-09-14T08:53:00;21.40;99.90
16128;DHT22;8168;49.036;7.690;2022-09-14T09:00:51;21.60;99.90
16128;DHT22;8168;49.036;7.690;2022-09-14T09:05:56;21.70;99.90
16128;DHT22;8168;49.036;7.690;2022-09-14T09:11:44;21.80;99.90
16128;DHT22;8168;49.036;7.690;2022-09-14T09:14:20;21.80;99.90
16128;DHT22;8168;49.036;7.690;2022-09-14T09:16:55;21.90;99.90
16128;DHT22;8168;49.036;7.690;2022-09-14T09:19:37;21.90;99.90
16128;DHT22;8168;49.036;7.690;2022-09-14T09:22:15;21.90;99.90
16128;DHT22;8168;49.036;7.690;2022-09-14T09:24:52;22.00;99.90
16128;DHT22;8168;49.036;7.690;2022-09-14T09:27:23;22.00;99.90
16128;DHT22;8168;49.036;7.690;2022-09-14T09:29:55;22.00;99.90
16128;DHT22;8168;49.036;7.690;2022-09-14T09:32:26;22.10;99.90
16128;DHT22;8168;49.036;7.690;2022-09-14T09:34:57;22.10;99.90
16128;DHT22;8168;49.036;7.690;2022-09-14T09:37:31;22.20;99.90
16128;DHT22;8168;49.036;7.690;2022-09-14T09:40:14;22.30;99.90
16128;DHT22;8168;49.036;7.690;2022-09-14T09:43:05;22.30;99.90
16128;DHT22;8168;49.036;7.690;2022-09-14T09:46:07;22.50;99.90
16128;DHT22;8168;49.036;7.690;2022-09-14T09:48:41;22.60;99.90
16128;DHT22;8168;49.036;7.690;2022-09-14T09:54:20;22.70;99.90
16128;DHT22;8168;49.036;7.690;2022-09-14T09:57:04;22.70;99.90
16128;DHT22;8168;49.036;7.690;2022-09-14T09:59:38;22.80;99.90
16128;DHT22;8168;49.036;7.690;2022-09-14T10:02:26;22.80;99.90
16128;DHT22;8168;49.036;7.690;2022-09-14T10:05:02;22.90;99.90
16128;DHT22;8168;49.036;7.690;2022-09-14T10:07:47;23.00;99.90
16128;DHT22;8168;49.036;7.690;2022-09-14T10:10:24;23.10;99.90
16128;DHT22;8168;49.036;7.690;2022-09-14T10:12:56;23.20;99.90
16128;DHT22;8168;49.036;7.690;2022-09-14T10:15:29;23.40;99.90
16128;DHT22;8168;49.036;7.690;2022-09-14T10:23:25;23.50;99.90
16128;DHT22;8168;49.036;7.690;2022-09-14T10:28:46;23.40;99.90
16128;DHT22;8168;49.036;7.690;2022-09-14T10:31:25;23.40;99.90
16128;DHT22;8168;49.036;7.690;2022-09-14T10:33:58;23.50;99.90
16128;DHT22;8168;49.036;7.690;2022-09-14T10:36:42;23.50;99.90
16128;DHT22;8168;49.036;7.690;2022-09-14T10:39:30;23.60;99.90
16128;DHT22;8168;49.036;7.690;2022-09-14T10:42:24;23.60;99.90
16128;DHT22;8168;49.036;7.690;2022-09-14T11:07:05;23.70;99.90
16128;DHT22;8168;49.036;7.690;2022-09-14T11:09:45;23.70;99.90
16128;DHT22;8168;49.036;7.690;2022-09-14T11:26:43;23.50;99.90
16128;DHT22;8168;49.036;7.690;2022-09-14T11:29:17;23.40;99.90
16128;DHT22;8168;49.036;7.690;2022-09-14T11:32:33;23.40;99.90
16128;DHT22;8168;49.036;7.690;2022-09-14T11:37:42;23.30;99.90
16128;DHT22;8168;49.036;7.690;2022-09-14T11:40:47;23.30;99.90
16128;DHT22;8168;49.036;7.690;2022-09-14T11:46:15;23.20;99.90
16128;DHT22;8168;49.036;7.690;2022-09-14T11:48:54;23.10;99.90
16128;DHT22;8168;49.036;7.690;2022-09-14T11:51:33;23.10;99.90
16128;DHT22;8168;49.036;7.690;2022-09-14T11:54:17;23.00;99.90
16128;DHT22;8168;49.036;7.690;2022-09-14T11:56:54;23.00;99.90
16128;DHT22;8168;49.036;7.690;2022-09-14T12:10:20;22.80;99.90
16128;DHT22;8168;49.036;7.690;2022-09-14T12:28:50;22.20;99.90
16128;DHT22;8168;49.036;7.690;2022-09-14T12:31:32;22.10;99.90
16128;DHT22;8168;49.036;7.690;2022-09-14T12:34:17;21.90;99.90
16128;DHT22;8168;49.036;7.690;2022-09-14T12:39:31;21.70;99.90
16128;DHT22;8168;49.036;7.690;2022-09-14T12:42:24;21.60;99.90
16128;DHT22;8168;49.036;7.690;2022-09-14T12:44:55;21.40;99.90
16128;DHT22;8168;49.036;7.690;2022-09-14T12:50:08;21.20;99.90
16128;DHT22;8168;49.036;7.690;2022-09-14T13:01:48;21.10;99.90
16128;DHT22;8168;49.036;7.690;2022-09-14T13:04:27;21.00;99.90
16128;DHT22;8168;49.036;7.690;2022-09-14T13:07:01;20.90;99.90
16128;DHT22;8168;49.036;7.690;2022-09-14T13:09:33;20.80;99.90
16128;DHT22;8168;49.036;7.690;2022-09-14T13:12:07;20.70;99.90
16128;DHT22;8168;49.036;7.690;2022-09-14T13:17:21;20.60;99.90
16128;DHT22;8168;49.036;7.690;2022-09-14T13:20:02;20.50;99.90
16128;DHT22;8168;49.036;7.690;2022-09-14T13:22:34;20.40;99.90
16128;DHT22;8168;49.036;7.690;2022-09-14T13:25:29;20.40;99.90
16128;DHT22;8168;49.036;7.690;2022-09-14T13:28:11;20.40;99.90
16128;DHT22;8168;49.036;7.690;2022-09-14T13:30:53;20.40;99.90
16128;DHT22;8168;49.036;7.690;2022-09-14T13:33:24;20.40;99.90
16128;DHT22;8168;49.036;7.690;2022-09-14T13:36:00;20.40;99.90
16128;DHT22;8168;49.036;7.690;2022-09-14T13:38:34;20.40;99.90
16128;DHT22;8168;49.036;7.690;2022-09-14T13:41:09;20.30;99.90
16128;DHT22;8168;49.036;7.690;2022-09-14T13:43:42;20.20;99.90
16128;DHT22;8168;49.036;7.690;2022-09-14T13:46:13;20.20;99.90
16128;DHT22;8168;49.036;7.690;2022-09-14T13:48:44;20.10;99.90
16128;DHT22;8168;49.036;7.690;2022-09-14T13:51:15;20.10;99.90
16128;DHT22;8168;49.036;7.690;2022-09-14T13:53:49;20.20;99.90
16128;DHT22;8168;49.036;7.690;2022-09-14T13:56:33;20.10;99.90
16128;DHT22;8168;49.036;7.690;2022-09-14T14:01:49;20.10;99.90
16128;DHT22;8168;49.036;7.690;2022-09-14T14:04:34;20.10;99.90
16128;DHT22;8168;49.036;7.690;2022-09-14T14:12:34;20.00;99.90
16128;DHT22;8168;49.036;7.690;2022-09-14T14:17:56;20.00;99.90
16128;DHT22;8168;49.036;7.690;2022-09-14T14:26:25;19.80;99.90
16128;DHT22;8168;49.036;7.690;2022-09-14T14:28:35;19.80;99.90
16128;DHT22;8168;49.036;7.690;2022-09-14T14:31:14;19.70;99.90
16128;DHT22;8168;49.036;7.690;2022-09-14T14:33:47;19.70;99.90
16128;DHT22;8168;49.036;7.690;2022-09-14T14:36:18;19.70;99.90
16128;DHT22;8168;49.036;7.690;2022-09-14T14:38:48;19.60;99.90
16128;DHT22;8168;49.036;7.690;2022-09-14T14:41:20;19.60;99.90
16128;DHT22;8168;49.036;7.690;2022-09-14T14:43:51;19.60;99.90
16128;DHT22;8168;49.036;7.690;2022-09-14T14:46:22;19.60;99.90
16128;DHT22;8168;49.036;7.690;2022-09-14T14:48:54;19.60;99.90
16128;DHT22;8168;49.036;7.690;2022-09-14T14:51:25;19.60;99.90
16128;DHT22;8168;49.036;7.690;2022-09-14T14:53:55;19.60;99.90
16128;DHT22;8168;49.036;7.690;2022-09-14T14:56:26;19.50;99.90
16128;DHT22;8168;49.036;7.690;2022-09-14T14:58:57;19.50;99.90
16128;DHT22;8168;49.036;7.690;2022-09-14T15:01:28;19.50;99.90
16128;DHT22;8168;49.036;7.690;2022-09-14T15:03:59;19.50;99.90
16128;DHT22;8168;49.036;7.690;2022-09-14T15:06:29;19.50;99.90
16128;DHT22;8168;49.036;7.690;2022-09-14T15:09:00;19.50;99.90
16128;DHT22;8168;49.036;7.690;2022-09-14T15:11:31;19.50;99.90
16128;DHT22;8168;49.036;7.690;2022-09-14T15:14:01;19.60;99.90
16128;DHT22;8168;49.036;7.690;2022-09-14T15:16:32;19.60;99.90
16128;DHT22;8168;49.036;7.690;2022-09-14T15:19:02;19.60;99.90
16128;DHT22;8168;49.036;7.690;2022-09-14T15:21:33;19.70;99.90
16128;DHT22;8168;49.036;7.690;2022-09-14T15:24:04;19.70;99.90
16128;DHT22;8168;49.036;7.690;2022-09-14T15:26:36;19.80;99.90
16128;DHT22;8168;49.036;7.690;2022-09-14T15:29:06;19.80;99.90
16128;DHT22;8168;49.036;7.690;2022-09-14T15:31:39;19.90;99.90
16128;DHT22;8168;49.036;7.690;2022-09-14T15:34:10;20.00;99.90
16128;DHT22;8168;49.036;7.690;2022-09-14T15:36:41;19.90;99.90
16128;DHT22;8168;49.036;7.690;2022-09-14T15:39:13;20.10;99.90
16128;DHT22;8168;49.036;7.690;2022-09-14T15:41:44;20.10;99.90
16128;DHT22;8168;49.036;7.690;2022-09-14T15:44:15;20.20;99.90
16128;DHT22;8168;49.036;7.690;2022-09-14T15:46:46;20.30;99.90
16128;DHT22;8168;49.036;7.690;2022-09-14T15:49:19;20.40;99.90
16128;DHT22;8168;49.036;7.690;2022-09-14T15:51:52;20.50;99.90
16128;DHT22;8168;49.036;7.690;2022-09-14T15:54:24;20.60;99.90
16128;DHT22;8168;49.036;7.690;2022-09-14T15:56:56;20.60;99.90
16128;DHT22;8168;49.036;7.690;2022-09-14T15:59:29;20.60;99.90
16128;DHT22;8168;49.036;7.690;2022-09-14T16:02:00;20.60;99.90
16128;DHT22;8168;49.036;7.690;2022-09-14T16:04:37;20.50;99.90
16128;DHT22;8168;49.036;7.690;2022-09-14T16:07:08;20.50;99.90
16128;DHT22;8168;49.036;7.690;2022-09-14T16:09:40;20.50;99.90
16128;DHT22;8168;49.036;7.690;2022-09-14T16:12:11;20.40;99.90
16128;DHT22;8168;49.036;7.690;2022-09-14T16:14:42;20.40;99.90
16128;DHT22;8168;49.036;7.690;2022-09-14T16:17:13;20.40;99.90
16128;DHT22;8168;49.036;7.690;2022-09-14T16:19:44;20.40;99.90
16128;DHT22;8168;49.036;7.690;2022-09-14T16:22:15;20.40;99.90
16128;DHT22;8168;49.036;7.690;2022-09-14T16:24:46;20.40;99.90
16128;DHT22;8168;49.036;7.690;2022-09-14T16:27:17;20.40;99.90
16128;DHT22;8168;49.036;7.690;2022-09-14T16:29:47;20.30;99.90
16128;DHT22;8168;49.036;7.690;2022-09-14T16:32:18;20.20;99.90
16128;DHT22;8168;49.036;7.690;2022-09-14T16:34:49;20.30;99.90
16128;DHT22;8168;49.036;7.690;2022-09-14T16:37:19;20.20;99.90
16128;DHT22;8168;49.036;7.690;2022-09-14T16:39:50;20.30;99.90
16128;DHT22;8168;49.036;7.690;2022-09-14T16:42:21;20.20;99.90
16128;DHT22;8168;49.036;7.690;2022-09-14T16:44:51;20.30;99.90
16128;DHT22;8168;49.036;7.690;2022-09-14T16:47:22;20.30;99.90
16128;DHT22;8168;49.036;7.690;2022-09-14T16:49:54;20.30;99.90
16128;DHT22;8168;49.036;7.690;2022-09-14T16:52:25;20.40;99.90
16128;DHT22;8168;49.036;7.690;2022-09-14T16:54:56;20.40;99.90
16128;DHT22;8168;49.036;7.690;2022-09-14T16:57:27;20.40;99.90
16128;DHT22;8168;49.036;7.690;2022-09-14T16:59:59;20.40;99.90
16128;DHT22;8168;49.036;7.690;2022-09-14T17:02:29;20.40;99.90
16128;DHT22;8168;49.036;7.690;2022-09-14T17:05:00;20.40;99.90
16128;DHT22;8168;49.036;7.690;2022-09-14T17:07:30;20.40;99.90
16128;DHT22;8168;49.036;7.690;2022-09-14T17:10:01;20.40;99.90
16128;DHT22;8168;49.036;7.690;2022-09-14T17:12:32;20.30;99.90
16128;DHT22;8168;49.036;7.690;2022-09-14T17:15:02;20.30;99.90
16128;DHT22;8168;49.036;7.690;2022-09-14T17:17:33;20.30;99.90
16128;DHT22;8168;49.036;7.690;2022-09-14T17:20:04;20.30;99.90
16128;DHT22;8168;49.036;7.690;2022-09-14T17:22:35;20.30;99.90
16128;DHT22;8168;49.036;7.690;2022-09-14T17:25:06;20.30;99.90
16128;DHT22;8168;49.036;7.690;2022-09-14T17:27:37;20.30;99.90
16128;DHT22;8168;49.036;7.690;2022-09-14T17:30:08;20.30;99.90
16128;DHT22;8168;49.036;7.690;2022-09-14T17:32:39;20.30;99.90
16128;DHT22;8168;49.036;7.690;2022-09-14T17:35:10;20.30;99.90
16128;DHT22;8168;49.036;7.690;2022-09-14T17:37:40;20.20;99.90
16128;DHT22;8168;49.036;7.690;2022-09-14T17:40:11;20.10;99.90
16128;DHT22;8168;49.036;7.690;2022-09-14T17:42:42;20.20;99.90
16128;DHT22;8168;49.036;7.690;2022-09-14T17:45:12;20.20;99.90
16128;DHT22;8168;49.036;7.690;2022-09-14T17:47:43;20.10;99.90
16128;DHT22;8168;49.036;7.690;2022-09-14T17:50:14;20.00;99.90
16128;DHT22;8168;49.036;7.690;2022-09-14T17:52:44;20.00;99.90
16128;DHT22;8168;49.036;7.690;2022-09-14T17:55:16;20.00;99.90
16128;DHT22;8168;49.036;7.690;2022-09-14T17:57:47;20.00;99.90
16128;DHT22;8168;49.036;7.690;2022-09-14T18:00:17;19.80;99.90
16128;DHT22;8168;49.036;7.690;2022-09-14T18:02:52;19.80;99.90
16128;DHT22;8168;49.036;7.690;2022-09-14T18:05:23;19.80;99.90
16128;DHT22;8168;49.036;7.690;2022-09-14T18:07:54;19.70;99.90
16128;DHT22;8168;49.036;7.690;2022-09-14T18:10:24;19.70;99.90
16128;DHT22;8168;49.036;7.690;2022-09-14T18:12:55;19.70;99.90
16128;DHT22;8168;49.036;7.690;2022-09-14T18:15:25;19.70;99.90
16128;DHT22;8168;49.036;7.690;2022-09-14T18:17:56;19.70;99.90
16128;DHT22;8168;49.036;7.690;2022-09-14T18:20:27;19.60;99.90
16128;DHT22;8168;49.036;7.690;2022-09-14T18:22:58;19.50;99.90
16128;DHT22;8168;49.036;7.690;2022-09-14T18:25:28;19.50;99.90
16128;DHT22;8168;49.036;7.690;2022-09-14T18:28:00;19.50;99.90
16128;DHT22;8168;49.036;7.690;2022-09-14T18:30:30;19.50;99.90
16128;DHT22;8168;49.036;7.690;2022-09-14T18:33:02;19.50;99.90
16128;DHT22;8168;49.036;7.690;2022-09-14T18:35:35;19.50;99.90
16128;DHT22;8168;49.036;7.690;2022-09-14T18:38:06;19.50;99.90
16128;DHT22;8168;49.036;7.690;2022-09-14T18:40:37;19.40;99.90
16128;DHT22;8168;49.036;7.690;2022-09-14T18:43:07;19.50;99.90
16128;DHT22;8168;49.036;7.690;2022-09-14T18:45:38;19.40;99.90
16128;DHT22;8168;49.036;7.690;2022-09-14T18:48:09;19.50;99.90
16128;DHT22;8168;49.036;7.690;2022-09-14T18:50:40;19.50;99.90
16128;DHT22;8168;49.036;7.690;2022-09-14T18:53:11;19.30;99.90
16128;DHT22;8168;49.036;7.690;2022-09-14T18:55:43;19.30;99.90
16128;DHT22;8168;49.036;7.690;2022-09-14T18:58:13;19.30;99.90
16128;DHT22;8168;49.036;7.690;2022-09-14T19:00:44;19.30;99.90
16128;DHT22;8168;49.036;7.690;2022-09-14T19:03:15;19.20;99.90
16128;DHT22;8168;49.036;7.690;2022-09-14T19:05:45;19.20;99.90